Results by/Résultats par Info:[email protected] Phone: (613)260-0994

                                    K-TOWN TRIATHLON
                    
                                 Sunday August 6, 2006

                         Confederation Park, Kingston, Ontario

                        Overall Results - Long Course Triathlon

  -----FINAL----- ----------------------- ------------ ------------------- -----          2 km                       56.5 km                   15 km
                                                       Category                   ------SWIM + T1-------    ----------BIKE--------    -------RUN + T2-------- -------
    Pos     Time  Name                    City         Plc/Total Category     #    Cat  Ovr  Time  /100m     Cat Ovr Time  km/hr      Cat  Ovr  Time     km   Penalty
  ------  ------- ----------------------- ------------ ------------------- -----  ----------------------    ----------------------    ----------------------- -------
    1     2:52:53 Rick HELLARD            Ottawa       1/19  M40 - 44      177    1      4   30:26  1:32    1      1 1:26:56  39.0     1      1   55:32  3:43         
    2     2:58:23 David CLINKARD          Kingston     1/2   Elite Men     194    1      1   27:33  1:23    1      4 1:31:01  37.2     1      3   59:49  4:00         
    3     3:06:30 Stephen CANN            Kanata       1/12  M30 - 34      180    1      6   30:42  1:33    2     10 1:32:37  36.6     2      9 1:03:12  4:13         
    4     3:07:01 Marie DANAIS            Hull         1/3   Elite Women   197    1      3   30:09  1:31    2     19 1:36:12  35.2     1      5 1:00:40  4:03         
    5     3:07:44 Julie CURWIN            Sydney       2/3   Elite Women    40    2      7   30:45  1:33    1     11 1:32:53  36.5     3     14 1:04:07  4:17         
    6     3:08:28 Chris GRAHAM            Winnipeg     1/10  M25 - 29       83    1      2   28:00  1:24    2     15 1:34:53  35.7     3     19 1:05:36  4:23         
    7     3:09:50 David MARKIN            Ottawa       2/10  M25 - 29      120    2     14   34:17  1:43    1      2 1:30:21  37.5     2     17 1:05:13  4:21         
    8     3:10:40 Bruno LAFONTAINE        Cantley      3/10  M25 - 29      174    3     15   34:40  1:44    3     20 1:36:14  35.2     1      2   59:47  4:00         
    9     3:11:16 Chris MILBURN           Sydney       1/19  M35 - 39       41    1     18   35:29  1:47    2      6 1:31:44  37.0     2     13 1:04:04  4:17         
   10     3:11:23 Susanne RUSSELL         Ottawa       3/3   Elite Women    93    3      9   31:15  1:34    3     21 1:36:18  35.2     2     12 1:03:51  4:16         
   11     3:13:17 Jeff WALSH              Belleville   2/12  M30 - 34      143    3     34   37:04  1:52    3     14 1:34:29  35.9     1      6 1:01:46  4:08         
   12     3:14:46 Clive MORGAN            Yarker       1/26  M45 - 49       23    1      5   30:34  1:32    5     26 1:37:07  34.9     2     29 1:07:06  4:29         
   13     3:15:26 Wayne DUSTIN            Ottawa       2/19  M40 - 44      193    11    72   42:20  2:07    3     13 1:33:02  36.4     2      4 1:00:05  4:01         
   14     3:15:35 Graydon ALMSTEDT        Ottawa       2/19  M35 - 39       61    11    58   40:39  2:02    1      5 1:31:35  37.0     1     11 1:03:22  4:14         
   15     3:16:16 Brad HILTON             Windsor      3/12  M30 - 34      183    2     32   36:59  1:51    1      3 1:30:29  37.5     4     37 1:08:49  4:36         
   16     3:16:23 Chris MACKNIE           Ottawa       3/19  M40 - 44      167    10    71   42:16  2:07    2      7 1:32:05  36.8     3      7 1:02:02  4:09         
   17     3:16:27 Paul B. MCANENEY        Ottawa       3/19  M35 - 39       68    3     26   36:38  1:50    3      8 1:32:11  36.8     7     33 1:07:39  4:31         
   18     3:16:46 Stephen HINTON          Kingston     2/26  M45 - 49       43    5     37   37:24  1:53    1      9 1:32:18  36.7     1     28 1:07:05  4:29         
   19     3:19:22 Rob ADAMS               Kingston     4/19  M35 - 39      186    4     30   36:57  1:51    5     23 1:36:48  35.0     4     20 1:05:39  4:23         
   20     3:20:21 Louis TAY               Ottawa       4/19  M40 - 44      101    8     66   41:52  2:06    4     16 1:35:14  35.6     5     10 1:03:16  4:14         
   21     3:21:56 Alina TOMA              Toronto      1/10  W25 - 29      153    1      8   30:56  1:33    4     73 1:46:16  31.9     1     15 1:04:45  4:19         
   22     3:22:12 Doug SHAW               Ottawa       5/19  M35 - 39      108    10    50   39:50  2:00    4     18 1:35:57  35.3     5     26 1:06:25  4:26         
   23     3:22:47 Jane HOWE               Kingston     1/7   W35 - 39       66    2     21   35:44  1:48    1     36 1:41:06  33.5     1     24 1:05:58  4:24         
   24     3:23:02 Paul MONROE             Wolfe isla   3/26  M45 - 49      147    7     41   37:58  1:54    3     24 1:36:53  35.0     5     35 1:08:12  4:33         
   25     3:23:52 Sara DOMINA             Ottawa       2/10  W25 - 29       84    4     24   36:23  1:50    1     32 1:40:35  33.7     2     27 1:06:54  4:28         
   26     3:24:02 Mike MYERS              Belleville   6/19  M35 - 39        8    6     36   37:22  1:53    9     38 1:41:37  33.4     3     16 1:05:04  4:21         
   27     3:24:46 Stephen SCOTT           Kingston     5/19  M40 - 44      109    2     28   36:43  1:51    11    56 1:45:03  32.3     4      8 1:03:02  4:13         
   28     3:25:26 Gilbert AYOUB           Montreal     1/13  M50 - 54       86    3     91   44:00  2:12    1     17 1:35:34  35.5     1     23 1:05:53  4:24         
   29     3:26:07 Billy SCHOENHARDT       King city    7/19  M35 - 39      171    7     38   37:35  1:53    6     29 1:39:31  34.1     8     38 1:09:02  4:37         
   30     3:26:40 Kevin PENNY             Ottawa       4/26  M45 - 49      156    3     13   34:11  1:43    9     31 1:40:17  33.8     8     50 1:12:13  4:49         
   31     3:27:22 Robert MILLER           Kingston     6/19  M40 - 44       25    6     62   40:57  2:03    6     37 1:41:06  33.5     6     18 1:05:20  4:22         
   32     3:27:35 Leslie SANDERSON        Ottawa       2/7   W35 - 39      192    1     10   31:45  1:36    2     72 1:46:15  31.9     2     40 1:09:35  4:39         
   33     3:27:50 Bernard CHARTRAND       Orleans      5/26  M45 - 49      185    12    57   40:27  2:02    8     30 1:39:54  33.9     3     31 1:07:30  4:30         
   34     3:27:57 Alan CHUD               Markham      6/26  M45 - 49        7    6     40   37:57  1:54    6     27 1:38:02  34.6     6     48 1:11:59  4:48         
   35     3:28:52 David DENNIER           Toronto      8/19  M35 - 39       71    5     35   37:15  1:52    7     33 1:40:48  33.6     9     42 1:10:50  4:44         
   36     3:30:10 Mike GILES              Ottawa       7/26  M45 - 49      190    9     49   39:45  2:00    7     28 1:38:14  34.5     7     49 1:12:12  4:49         
   37     3:31:21 Fred TOPHAM             Kingston     8/26  M45 - 49       74    18   113   46:52  2:21    4     25 1:36:56  35.0     4     32 1:07:34  4:31         
   38     3:31:28 Richard HINZ            Gatineau     9/26  M45 - 49       82    4     27   36:41  1:51    2     12 1:32:55  36.5     17    96 1:21:53  5:28         
   39     3:32:04 Ana DENNIER             Toronto      1/10  W30 - 34       72    4     54   40:08  2:01    4     71 1:46:05  32.0     2     22 1:05:52  4:24         
   40     3:32:10 Veronic BEZAIRE         Kanata       3/10  W25 - 29      179    2     12   33:25  1:41    5     88 1:48:34  31.2     4     41 1:10:12  4:41         
   41     3:32:46 David ARADI             Mississaug   9/19  M35 - 39      130    2     19   35:32  1:47    14    98 1:50:05  30.8     6     30 1:07:10  4:29         
   42     3:32:49 Cindy LEWIS             Toronto      4/10  W25 - 29      104    5     59   40:41  2:03    2     45 1:43:06  32.9     3     39 1:09:03  4:37         
   43     3:32:54 Sean WRIGHT             Ottawa       7/19  M40 - 44      140    7     64   41:49  2:06    5     22 1:36:35  35.1     15    58 1:14:30  4:58         
   44     3:33:14 Margie BAILEY           Ottawa       2/10  W30 - 34      141    5     86   43:13  2:10    1     53 1:44:11  32.5     1     21 1:05:51  4:24         
   45     3:33:58 Jim MALEKOS             Kingston     2/13  M50 - 54       14    2     23   36:14  1:49    2     41 1:42:33  33.1     4     59 1:15:13  5:01         
   46 CLY 3:35:19 David BARBIC            Kingston     4/10  M25 - 29      135    4     33   37:00  1:51    5     42 1:42:40  33.0     6     63 1:15:39  5:03         
   47     3:35:22 Jennifer CORNER GARDINE Ottawa       5/10  W25 - 29      182    3     22   35:50  1:48    3     59 1:45:14  32.2     5     57 1:14:19  4:58         
   48     3:35:35 Ken CORNELIUS           Oshawa       8/19  M40 - 44       46    5     46   39:40  1:59    9     52 1:44:09  32.5     10    45 1:11:47  4:48         
   49     3:35:45 Zoe PANCHEN             Ottawa       1/14  W40 - 44      165    4     70   42:07  2:07    1     39 1:41:47  33.3     1     47 1:11:53  4:48         
   50     3:35:47 Garry DONALDSON         Chelsea      9/19  M40 - 44      168    3     29   36:50  1:51    13    76 1:46:28  31.8     12    52 1:12:29  4:50         
   51     3:36:33 Monique GIROUX          Ottawa       2/14  W40 - 44      102    1     20   35:35  1:47    2     48 1:43:19  32.8     5     79 1:17:41  5:11         
   52     3:36:54 Kerry ROCHELEAU         Ottawa       3/10  W30 - 34      136    1     25   36:26  1:50    2     54 1:44:51  32.3     3     62 1:15:38  5:03         
   53     3:38:55 Gary ONEILL             Dollard     10/26  M45 - 49      127    2     11   31:47  1:36    14    66 1:45:38  32.1     16    95 1:21:31  5:27         
   54     3:39:20 Joel KYER               Kingston     5/10  M25 - 29       49    7     82   42:53  2:09    4     34 1:40:53  33.6     5     61 1:15:34  5:03         
   55     3:39:21 Willem VEERBEEK         Richmond H  10/19  M35 - 39       96    8     42   38:03  1:55    8     35 1:41:03  33.5     10    90 1:20:17  5:22         
   56     3:39:30 Tim DILLON              Ottawa      11/26  M45 - 49      129    11    55   40:09  2:01    11    49 1:43:28  32.8     9     64 1:15:54  5:04         
   57     3:40:16 Peter ELLIS             Kingston    10/19  M40 - 44       65    16   103   45:48  2:18    14    77 1:46:31  31.8     7     34 1:07:59  4:32         
   58     3:40:49 Vincent CLIFFORD        Ottawa      11/19  M40 - 44       78    15   102   45:47  2:18    7     47 1:43:15  32.8     11    46 1:11:47  4:48         
   59     3:40:53 David BENWELL           Santa Moni  12/26  M45 - 49      196    10    53   40:06  2:01    12    51 1:43:57  32.6     11    74 1:16:51  5:08         
   60     3:42:07 Douglas BISHOP          Ottawa       1/1   M60 - 64      124    1     17   35:27  1:47    1     75 1:46:24  31.9     1     91 1:20:17  5:22         
   61     3:42:42 Marie ROBERTS           Mississaug   4/10  W30 - 34      126    2     51   39:51  2:00    3     67 1:45:43  32.1     5     76 1:17:09  5:09         
   62     3:43:24 Andre SINCENNES         Ottawa      12/19  M40 - 44      146    18   118   47:31  2:23    10    55 1:44:51  32.3     9     43 1:11:03  4:45         
   63     3:44:12 Michelle ZUNTI          Ottawa       3/7   W35 - 39      149    5     79   42:43  2:09    3     90 1:49:03  31.1     3     51 1:12:27  4:50         
   64     3:44:37 Terry OBRIEN            Kingston     3/13  M50 - 54      137    1     16   34:43  1:45    3     80 1:46:44  31.8     7    105 1:23:12  5:33         
   65     3:44:50 Joanne(Jody) MILLER     Oakville     3/14  W40 - 44      175    2     43   38:08  1:55    5    102 1:50:43  30.6     3     66 1:16:00  5:04         
   66     3:45:07 Sam MCHUGH              Toronto      6/10  M25 - 29      154    5     61   40:48  2:03    9    109 1:53:16  29.9     4     44 1:11:04  4:45         
   67     3:45:35 Benjamin BELL           Belleville   7/10  M25 - 29       91    8     95   44:32  2:14    6     43 1:42:43  33.0     8     81 1:18:21  5:14         
   68     3:45:37 Claire GRASTY           Ottawa       5/10  W30 - 34       69    3     52   40:03  2:01    5     92 1:49:07  31.1     4     68 1:16:27  5:06         
   69     3:46:20 Dennis HILLS            Trenton     13/19  M40 - 44       62    19   144   50:59  2:33    16    82 1:47:10  31.6     8     36 1:08:13  4:33         
   70     3:46:25 Cathy BODNOFF           Ottawa       1/7   W45 - 49      114    1     75   42:32  2:08    3     81 1:46:59  31.7     2     75 1:16:55  5:08         
   71     3:46:41 Benjamin DAVIES         Toronto      4/12  M30 - 34       28    4     39   37:37  1:53    5     57 1:45:08  32.2     9    107 1:23:57  5:36         
   72     3:46:47 Maxime FEUILLAT         Kingston     5/12  M30 - 34      115    5     47   39:42  2:00    8    100 1:50:26  30.7     5     71 1:16:40  5:07         
   73     3:46:58 Stuart JONES            Kingston    14/19  M40 - 44      199    4     31   36:58  1:51    12    69 1:45:48  32.0     17   108 1:24:12  5:37         
   74     3:47:38 George DAVIDSON         Bradford    15/19  M40 - 44       70    13    89   43:36  2:11    17   103 1:50:43  30.6     14    55 1:13:19  4:54         
   75     3:48:08 Glenda CLAPHAM          Whitby       2/7   W45 - 49       47    4    107   46:06  2:19    2     70 1:46:02  32.0     1     65 1:16:00  5:04         
   76     3:48:24 Stacey BERDAN           Tweed        4/7   W35 - 39        5    4     68   42:01  2:07    4     99 1:50:06  30.8     4     67 1:16:17  5:06         
   77     3:49:18 Erik COUTURE            Nepean       8/10  M25 - 29       59    9    119   47:32  2:23    7     60 1:45:19  32.2     7     70 1:16:28  5:06         
   78     3:50:15 Christian DEL VALLE     Ottawa       6/12  M30 - 34       89    6     60   40:45  2:03    11   148 2:03:32  27.4     3     25 1:06:00  4:24         
   79 CLY 3:50:24 Michael LESAGE          Nobleton    13/26  M45 - 49      161    15    87   43:20  2:10    10    40 1:42:27  33.1     19   109 1:24:38  5:39         
   80     3:51:58 Lester FEARMAN          Toronto      4/13  M50 - 54       90    5    100   45:35  2:17    4     89 1:49:02  31.1     5     77 1:17:22  5:10         
   81     3:52:09 Sheri MCCREADY          Ottawa       4/14  W40 - 44      103    10   133   50:21  2:32    4     74 1:46:17  31.9     2     60 1:15:33  5:03         
   82     3:52:12 Thomas SANTOWSKI        Kingston    16/19  M40 - 44      133    12    73   42:22  2:08    15    78 1:46:33  31.8     16   106 1:23:19  5:34         
   83     3:53:09 Michael HEAL            Kingston     2/2   Elite Men     159    2    104   45:50  2:18    2     62 1:45:21  32.2     2     97 1:21:58  5:28         
   84     3:53:10 Kim MIROSLAVICH         Brampton     5/7   W35 - 39       80    3     63   41:31  2:05    5    111 1:53:48  29.8     5     80 1:17:52  5:12         
   85     3:53:11 Gale QUIGLEY            Kingston     5/14  W40 - 44        3    13   145   51:14  2:34    3     65 1:45:31  32.1     4     69 1:16:27  5:06         
   86     3:53:49 Andrew SPEEDY           Belleville  14/26  M45 - 49       26    13    76   42:33  2:08    20    95 1:49:47  30.9     15    94 1:21:29  5:26         
   87     3:54:21 Steve MCCREADY          Ottawa      17/19  M40 - 44      105    17   114   47:05  2:22    18   115 1:54:25  29.6     13    53 1:12:52  4:52         
   88     3:55:47 Bob EBSARY              Rockland    15/26  M45 - 49       19    17   105   45:56  2:18    21   104 1:51:10  30.5     13    82 1:18:42  5:15         
   89     3:55:57 Lynn DOUGLAS            Camillus     6/14  W40 - 44      157    3     67   41:54  2:06    7    118 1:54:57  29.5     6     84 1:19:07  5:17         
   90     3:56:27 Craig MEEKS             Roslin      11/19  M35 - 39       56    16   112   46:46  2:21    10    79 1:46:35  31.8     11   104 1:23:08  5:33         
   91 CLY 3:57:19 Paul HERLEHY            Westport O  18/19  M40 - 44       22    9     69   42:03  2:07    8     50 1:43:57  32.6     18   131 1:31:20  6:06         
   92     3:57:34 Derek OUELLET           Kingston    16/26  M45 - 49        1    8     48   39:43  2:00    15    68 1:45:45  32.1     22   132 1:32:06  6:09         
   93     3:57:37 Jim ELYOT               Kingston    17/26  M45 - 49      148    22   147   51:51  2:36    19    91 1:49:04  31.1     10    72 1:16:43  5:07         
   94     3:57:47 Simon HEATON            Newmarket    5/13  M50 - 54       63    10   134   50:24  2:32    6    112 1:53:55  29.8     3     56 1:13:29  4:54         
   95     3:58:09 Jon BELL                Belleville   9/10  M25 - 29      107    6     78   42:41  2:09    8     63 1:45:23  32.2     9    127 1:30:07  6:01         
   96     3:59:01 Cuthbert CHEUNG         Belleville  18/26  M45 - 49       27    14    81   42:52  2:09    24   122 1:56:00  29.2     14    89 1:20:11  5:21         
   97     3:59:38 Tom MEERS               Kingston     7/12  M30 - 34      118    9    146   51:25  2:35    9    105 1:51:27  30.4     6     73 1:16:47  5:08         
   98     3:59:39 Matthew RODGERS         Stittsvill   8/12  M30 - 34      169    8    121   47:42  2:24    6     93 1:49:26  31.0     7     99 1:22:32  5:31         
   99     3:59:58 Caitlin PIETRAS         Kingston     1/4   W20 - 24      170    2     84   43:10  2:10    1    101 1:50:34  30.7     2    114 1:26:14  5:45         
  100     4:01:26 David DYER              Ottawa       1/9   M55 - 59       10    2     65   41:51  2:06    3     94 1:49:42  30.9     4    126 1:29:54  6:00         
  101     4:02:20 Cathy CAMPANARO         Kingston     7/14  W40 - 44      131    6    115   47:15  2:22    8    121 1:55:16  29.4     7     86 1:19:50  5:20         
  102     4:02:35 Morris O'CALLAGHAN      Ottawa       2/9   M55 - 59      122    1     45   39:17  1:58    6    131 1:58:04  28.7     3    112 1:25:15  5:41         
  103     4:04:00 Rod MACDONALD           Toronto     12/19  M35 - 39       42    17   116   47:21  2:23    11    84 1:47:29  31.5     12   120 1:29:10  5:57         
  104     4:04:07 Charles MEEHAN          Mississaug  19/26  M45 - 49        4    21   143   50:54  2:33    18    87 1:48:32  31.2     20   110 1:24:41  5:39         
  105 CLY 4:04:08 Dave MORTON             Nepean      20/26  M45 - 49      119    23   148   51:53  2:36    23   117 1:54:53  29.5     12    78 1:17:23  5:10         
  106     4:04:16 Helga GRODZINSKI        Kingston     8/14  W40 - 44        9    5     90   43:43  2:12    6    114 1:54:02  29.7     10   116 1:26:32  5:47         
  107     4:04:33 Jay SERDULA             Kingston     9/12  M30 - 34      132    10   149   51:59  2:36    7     96 1:49:49  30.9     8    101 1:22:46  5:32         
  108     4:04:59 Sid CADEL               Newmarket    6/13  M50 - 54      150    7    120   47:37  2:23    8    128 1:56:37  29.1     6     92 1:20:46  5:24         
  109     4:05:45 Brian LANSDOWNE                      3/9   M55 - 59       18    7    163 1:00:28  3:02    2     58 1:45:12  32.2     1     88 1:20:06  5:21         
  110     4:06:24 Rob ROBERTS             Ancaster    21/26  M45 - 49      189    25   155   56:26  2:50    16    83 1:47:26  31.6     18   100 1:22:33  5:31         
  111     4:06:26 Barry CAMBELL           Verona      22/26  M45 - 49      152    16    97   44:56  2:15    13    61 1:45:19  32.2     24   140 1:36:12  6:25         
  112     4:07:05 Alan MACDONALD          Odessa      10/12  M30 - 34       95    7     80   42:45  2:09    4     44 1:42:50  33.0     11   150 1:41:31  6:47         
  113     4:09:57 David ANDREW            Kingston     4/9   M55 - 59      110    5    151   52:14  2:37    4    106 1:52:41  30.1     2    111 1:25:03  5:41         
  114     4:10:20 Mark BUTLER             Frankville  13/19  M35 - 39      162    15   111   46:35  2:20    12    86 1:48:03  31.4     13   137 1:35:43  6:23         
  115     4:10:43 Scott ARMSTRONG         Thornhill   14/19  M35 - 39       98    9     44   38:28  1:56    13    97 1:49:59  30.8     17   148 1:39:17  6:38    3:00 
  116     4:11:02 Shannon BENTLEY         Markham      6/10  W30 - 34      144    7    122   47:45  2:24    7    142 2:02:03  27.8     6     93 1:21:15  5:25         
  117     4:11:30 Deborah STEACY          Kingston     3/7   W45 - 49       13    5    126   48:45  2:27    1     64 1:45:24  32.2     6    146 1:37:21  6:30         
  118     4:12:01 Stefan HLOUSCHKO        Kingston     1/1   M20 - 24      112    1    158   58:03  2:55    1    119 1:54:59  29.5     1     83 1:19:00  5:16         
  119     4:12:16 Elsa HANSEN             Kingston     6/10  W25 - 29       76    7     77   42:39  2:08    8    133 1:58:58  28.5     7    129 1:30:40  6:03         
  120     4:12:17 Tiia BISHOP             Ottawa       2/4   W20 - 24      125    3     88   43:28  2:11    2    146 2:02:49  27.6     1    103 1:23:00  5:32    3:00 
  121     4:12:18 Otto STIMAKOVITS        Waterloo     7/13  M50 - 54      172    9    131   49:03  2:28    5    110 1:53:43  29.8     10   123 1:29:33  5:59         
  122     4:13:46 Carolyn DEETH           Toronto      4/7   W45 - 49      145    2    101   45:41  2:18    6    161 2:08:19  26.4     3     85 1:19:47  5:20         
  123     4:14:19 Richard CAMERON         Kingston     8/13  M50 - 54      191    6    108   46:16  2:19    9    132 1:58:15  28.7     11   125 1:29:49  6:00         
  124     4:15:01 Jen KELSO               London       9/14  W40 - 44       81    7    123   47:48  2:24    11   139 2:01:09  28.0     9    113 1:26:05  5:45         
  125     4:15:14 Nadia BUCCIERI          Aurora       7/10  W30 - 34      121    9    139   50:40  2:32    8    143 2:02:12  27.7     7     98 1:22:23  5:30         
  126     4:15:26 Neil GRAHAM             Ottawa      15/19  M35 - 39       55    13    94   44:11  2:13    16   113 1:53:59  29.7     15   145 1:37:17  6:30         
  127     4:16:07 Craig BORNCAMP          Camillus     9/13  M50 - 54      158    4     96   44:54  2:15    7    120 1:55:11  29.4     13   138 1:36:03  6:25         
  128     4:16:13 Denis MOREL             Hartington  23/26  M45 - 49        6    19   117   47:26  2:23    22   116 1:54:39  29.6     23   135 1:34:09  6:17         
  129     4:16:55 Bob HARDING             Sydenham     5/9   M55 - 59       97    4    110   46:27  2:20    5    108 1:53:15  29.9     6    144 1:37:14  6:29         
  130     4:17:43 Susan NEVITT-YELLE      Ottawa      10/14  W40 - 44      187    11   135   50:27  2:32    12   150 2:04:21  27.3     8    102 1:22:56  5:32         
  131     4:17:45 Bernadette THOMAS       Sandford    10/13  M50 - 54       64    8    129   48:56  2:27    11   144 2:02:24  27.7     8    115 1:26:26  5:46         
  132     4:18:23 Heather MACDONALD       Inverary    11/14  W40 - 44       15    9    125   48:26  2:26    10   136 2:00:35  28.1     11   121 1:29:23  5:58         
  133     4:18:44 David KREDL             Beaconsfie  19/19  M40 - 44       48    14    99   45:30  2:17    19   124 1:56:13  29.2     19   143 1:37:02  6:29         
  134     4:18:50 Gerhard PRATT           Kingston    24/26  M45 - 49       29    26   168 1:01:28  3:05    17    85 1:47:44  31.5     21   124 1:29:38  5:59         
  135     4:18:55 Paula JARVIS            Kingston     3/4   W20 - 24       44    1     56   40:23  2:02    3    156 2:05:54  26.9     3    134 1:32:39  6:11         
  136 CLY 4:19:49 Lorna WEEKS             Kitimat      7/10  W25 - 29       54    8     83   42:57  2:09    6    123 1:56:02  29.2     9    149 1:40:51  6:44         
  137     4:21:57 Catharine CLARKE        Mountain     6/7   W35 - 39      128    6     85   43:11  2:10    6    129 1:57:01  29.0     6    151 1:41:46  6:48         
  138     4:22:47 Anuradha NATHAN                      8/10  W25 - 29      198    10   157   57:13  2:52    10   154 2:05:31  27.0     6     87 1:20:04  5:21         
  139     4:23:37 Jennifer KOUSSAYA-KENT  Ottawa       8/10  W30 - 34      163    8    130   48:57  2:27    9    152 2:05:11  27.1     8    122 1:29:29  5:58         
  140     4:23:38 Rory KILBURN            Kingston    11/13  M50 - 54      173    11   137   50:34  2:32    10   138 2:00:55  28.0     12   133 1:32:11  6:09         
  141     4:24:06 Ayoub ARLENE            Montreal     5/7   W45 - 49       87    6    142   50:53  2:33    4    153 2:05:20  27.0     4    117 1:27:54  5:52         
  142 CLY 4:24:44 Skye BARBIC             Kingston     9/10  W25 - 29      134    6     74   42:24  2:08    7    127 1:56:33  29.1     10   157 1:45:48  7:04         
  143     4:26:13 Charmaine ROBERTS       Ancaster    12/14  W40 - 44      184    14   161   59:33  2:59    9    126 1:56:21  29.1     12   128 1:30:20  6:02         
  144 CLY 4:27:42 Robert GAUDREAU         Bath        16/19  M35 - 39      178    14    98   45:01  2:16    18   147 2:03:26  27.5     16   147 1:39:16  6:38         
  145     4:28:04 Stephen MCPHERSON       Kingston    12/13  M50 - 54      106    13   160   58:38  2:56    12   166 2:16:22  24.9     2     54 1:13:05  4:53         
  146     4:30:07 Miriam LYON             Kingston     4/4   W20 - 24       75    4    132   49:18  2:28    4    157 2:05:56  26.9     4    136 1:34:54  6:20         
  147     4:30:11 Melanie POLLARD         Nepean      10/10  W25 - 29       60    9    138   50:38  2:32    9    145 2:02:40  27.6     8    141 1:36:54  6:28         
  148     4:30:15 David HARKEY            Oakville    11/12  M30 - 34      116    12   169 1:01:34  3:05    10   130 1:57:29  28.9     10   130 1:31:13  6:05         
  149     4:31:06 Kathryn HANDFORD        Toronto      6/7   W45 - 49       51    7    156   57:01  2:52    5    155 2:05:41  27.0     5    118 1:28:25  5:54         
  150     4:35:12 Sara BOYCE              Westport     9/10  W30 - 34       92    6    109   46:18  2:19    6    134 1:59:52  28.3     9    159 1:49:03  7:17         
  151 DNF 4:35:14 Lesley TAYLOR           Toronto     13/14  W40 - 44       58    8    124   47:51  2:24    13   151 2:04:51  27.2     13   153 1:42:33  6:51         
  152     4:37:05 Adam KOVEN              Kingston    17/19  M35 - 39       53    19   165 1:00:45  3:03    17   135 2:00:10  28.2     14   139 1:36:11  6:25         
  153     4:38:51 Trevor VOWLES           Kingston     6/9   M55 - 59      195    6    162 1:00:11  3:01    7    140 2:01:43  27.9     5    142 1:36:59  6:28         
  154     4:40:08 Robert MCCALDON         Hartington   1/1   M70 & Over     17    1    150   52:08  2:37    1    149 2:03:46  27.4     1    155 1:44:14  6:57         
  155     4:40:51 Cindy HEALY             Kingston    14/14  W40 - 44        2    12   141   50:50  2:33    14   159 2:06:49  26.7     14   154 1:43:13  6:53         
  156     4:41:54 Laurent LEGAULT         Kingsport   13/13  M50 - 54       20    12   152   52:35  2:38    13   167 2:20:35  24.1     9    119 1:28:45  5:55         
  157     4:42:37 Todd PEARSON            Kingston    25/26  M45 - 49       77    24   154   55:39  2:47    26   141 2:01:54  27.8     25   156 1:45:05  7:01         
  158     4:42:38 Michael BRUNDAGE        Kingston    26/26  M45 - 49       67    20   136   50:32  2:32    25   125 1:56:17  29.2     26   161 1:55:49  7:44         
  159     4:47:20 Arlene HOOPER           Newmarket    7/7   W45 - 49       94    3    106   45:57  2:18    7    168 2:22:00  23.9     7    152 1:41:48  6:48         
  160     4:50:39 Jill RELYEA-VOSS        Kingston     1/2   W50 - 54       16    1    128   48:54  2:27    1    137 2:00:39  28.1     2    166 2:01:06  8:05         
  161     4:54:31 Samuel CLEMENCE         Syracuse     1/1   M65 - 69       39    1    140   50:43  2:33    1    160 2:08:14  26.4     1    160 1:55:35  7:43         
  162     4:54:44 Tom ANCESKI             Ajax        10/10  M25 - 29      176    10   166 1:01:12  3:04    10   158 2:06:46  26.7     10   158 1:48:17  7:14         
  163 CLY 5:00:55 Shelley MCDONALD        Kanata       7/7   W35 - 39       45    7    127   48:50  2:27    7    162 2:13:20  25.4     7    163 1:58:46  7:56         
  164 CLY 5:06:31 Ted DUFRESNE            Perth Road  18/19  M35 - 39       99    18   153   54:40  2:44    19   163 2:15:32  25.0     18   162 1:56:21  7:46         
  165     5:29:26 David LYON              Kingston     7/9   M55 - 59       79    9    170 1:14:19  3:43    8    164 2:15:41  25.0     7    164 1:59:28  7:58         
  166     5:32:39 Susan RADFORD           Perth        2/2   W50 - 54      123    2    164 1:00:30  3:02    2    169 2:31:46  22.3     1    165 2:00:25  8:02         
  167     5:45:30 Jane MCCALDON           Hartington   1/1   W70 & Over    160                                                         1                              
  168             Carolyn LOVE            Ottawa      10/10  W30 - 34       31                                                                                   2:00 
  169 DNF         Steve BRADLEY           Casselman    8/9   M55 - 59       32    3     92   44:02  2:13    1     46 1:43:11  32.9                                    
  170             Tj JELLINEK             Orleans     19/19  M35 - 39      142    12    93   44:03  2:13    15   107 1:53:06  30.0                                    
  171             Peter LEM               Amherstvie  12/12  M30 - 34      111    11   159   58:30  2:56    12   165 2:15:58  24.9                                    
  172 DNF         Ed BRAND                Kingston     9/9   M55 - 59       88    8    167 1:01:13  3:04